Flight Track Log - Related Links

Times and Time Zones

All times are in EDT time to prevent confusion due to time zone crossing. See the N63981 flight status page for this flight to view local times or setup timezone preferences in your user account.

Time Position Orientation Groundspeed Altitude Reporting Facility
EDT Latitude Longitude Course Direction KTS MPH feet Rate Location/Type
Tue 03:00:02 PM 42.7700 -73.8067 North 126 145 900  Level Boston Center
Tue 03:00:26 PM 42.7831 -73.8053 North 127 146 1,200 656 Climbing Boston Center
Tue 03:01:06 PM 42.8017 -73.8136 342° North 119 137 1,600 590 Climbing Boston Center
Tue 03:01:27 PM 42.8022 -73.8292 273° West 119 137 1,800 571 Climbing Boston Center
Tue 03:02:09 PM 42.7861 -73.8503 224° Southwest 122 140 2,200 700 Climbing Boston Center
Tue 03:02:27 PM 42.7786 -73.8647 235° Southwest 122 140 2,500 787 Climbing Boston Center
Tue 03:03:10 PM 42.7617 -73.8858 222° Southwest 121 139 3,000 689 Climbing Boston Center
Tue 03:03:28 PM 42.7553 -73.8978 234° Southwest 124 143 3,200 400 Climbing Boston Center
Tue 03:04:10 PM 42.7378 -73.9219 225° Southwest 128 147 3,400 400 Climbing Boston Center
Tue 03:04:28 PM 42.7289 -73.9356 228° Southwest 134 154 3,600 667 Climbing Boston Center
Tue 03:05:13 PM 42.7117 -73.9628 229° Southwest 134 154 4,100 500 Climbing Boston Center
Tue 03:05:28 PM 42.7047 -73.9739 230° Southwest 133 153 4,100 492 Level Boston Center
Tue 03:06:14 PM 42.6911 -74.0019 237° Southwest 127 146 4,600 590 Climbing Boston Center
Tue 03:06:29 PM 42.6850 -74.0108 227° Southwest 128 147 4,700 667 Climbing Boston Center
Tue 03:07:17 PM 42.6694 -74.0406 235° Southwest 129 148 5,300 689 Climbing Boston Center
Tue 03:07:30 PM 42.6622 -74.0525 231° Southwest 128 147 5,400 590 Climbing Boston Center
Tue 03:08:18 PM 42.6456 -74.0817 232° Southwest 129 148 5,900 600 Climbing Boston Center
Tue 03:08:30 PM 42.6400 -74.0914 232° Southwest 128 147 6,000 98 Climbing Boston Center
Tue 03:09:19 PM 42.6219 -74.1211 230° Southwest 135 155 6,000  Level Boston Center
Tue 03:09:31 PM 42.6150 -74.1325 230° Southwest 141 162 6,000  Level Boston Center
Tue 03:10:20 PM 42.5978 -74.1700 238° Southwest 153 176 6,000  Level Boston Center
Tue 03:10:32 PM 42.5906 -74.1822 231° Southwest 159 183 6,000 82 Level Boston Center
Tue 03:11:33 PM 42.5661 -74.2319 236° Southwest 159 183 6,100  Climbing Boston Center
Tue 03:12:23 PM 42.5439 -74.2692 231° Southwest 158 182 6,000  Descending Boston Center
Tue 03:13:26 PM 42.5189 -74.3133 232° Southwest 148 170 6,100  Climbing Boston Center
Tue 03:14:26 PM 42.4942 -74.3650 237° Southwest 151 174 6,000 -50 Descending Boston Center
Tue 03:15:27 PM 42.4706 -74.4131 236° Southwest 154 177 6,000 32 Level Boston Center
Tue 03:17:32 PM 42.4181 -74.5089 233° Southwest 153 176 6,100  Climbing Boston Center
Tue 03:18:34 PM 42.3917 -74.5547 232° Southwest 153 176 6,000 -49 Descending Boston Center
Tue 03:19:34 PM 42.3672 -74.5986 233° Southwest 149 171 6,000 50 Level Boston Center
Tue 03:20:34 PM 42.3414 -74.6453 233° Southwest 145 167 6,100 49 Climbing Boston Center
Tue 03:21:36 PM 42.3228 -74.6825 236° Southwest 144 166 6,100  Level Boston Center
Tue 03:22:39 PM 42.2969 -74.7364 237° Southwest 143 165 6,100  Level Boston Center
Tue 03:23:40 PM 42.2742 -74.7811 235° Southwest 144 166 6,100  Level Boston Center
Tue 03:24:41 PM 42.2494 -74.8231 231° Southwest 143 165 6,100 -50 Level Boston Center
Tue 03:25:41 PM 42.2258 -74.8653 233° Southwest 142 163 6,000 -48 Descending Boston Center
Tue 03:26:45 PM 42.2008 -74.9106 233° Southwest 147 169 6,000 48 Level Boston Center
Tue 03:27:45 PM 42.1756 -74.9558 233° Southwest 148 170 6,100 50 Climbing Boston Center
Tue 03:28:46 PM 42.1528 -75.0008 236° Southwest 148 170 6,100 -48 Level Boston Center
Tue 03:29:50 PM 42.1314 -75.0447 237° Southwest 145 167 6,000 -48 Descending Boston Center
Tue 03:30:51 PM 42.1108 -75.0861 236° Southwest 141 162 6,000 49 Level Boston Center
Tue 03:31:53 PM 42.0858 -75.1406 238° Southwest 145 167 6,100 49 Climbing Boston Center
Tue 03:32:54 PM 42.0625 -75.1853 235° Southwest 148 170 6,100 -50 Level Boston Center
Tue 03:33:54 PM 42.0389 -75.2300 235° Southwest 146 168 6,000 -50 Descending Boston Center
Tue 03:34:54 PM 42.0178 -75.2753 238° Southwest 144 166 6,000  Level Boston Center
Tue 03:35:58 PM 41.9922 -75.3292 237° Southwest 143 165 6,000  Level Boston Center
Tue 03:36:58 PM 41.9694 -75.3742 236° Southwest 144 166 6,000 -50 Level Boston Center
Tue 03:37:59 PM 41.9475 -75.4156 235° Southwest 139 160 5,900  Descending Boston Center
Tue 03:39:01 PM 41.9242 -75.4581 234° Southwest 140 161 6,000 49 Climbing Boston Center
Tue 03:40:02 PM 41.9025 -75.5039 238° Southwest 144 166 6,000 48 Level Boston Center
Tue 03:41:05 PM 41.8814 -75.5500 238° Southwest 145 167 6,100 48 Climbing Boston Center
Tue 03:42:06 PM 41.8581 -75.5939 234° Southwest 145 167 6,100  Level Boston Center
Tue 03:43:06 PM 41.8358 -75.6342 233° Southwest 140 161 6,100 -49 Level Boston Center
Tue 03:44:09 PM 41.8144 -75.6778 237° Southwest 140 161 6,000  Descending Boston Center
Tue 03:45:10 PM 41.7886 -75.7289 236° Southwest 139 160 6,100 49 Climbing Boston Center
Tue 03:46:11 PM 41.7672 -75.7725 237° Southwest 139 160 6,100 -50 Level Boston Center
Tue 03:47:11 PM 41.7450 -75.8161 236° Southwest 140 161 6,000 -48 Descending Boston Center
Tue 03:48:15 PM 41.7225 -75.8575 234° Southwest 139 160 6,000  Level Boston Center
Tue 03:49:22 PM 41.6933 -75.9128 235° Southwest 146 168 6,000  Level New Center
Tue 03:50:22 PM 41.6725 -75.9583 239° Southwest 146 168 6,000 -50 Level New Center
Tue 03:51:22 PM 41.6500 -76.0011 235° Southwest 146 168 5,900  Descending New Center
Tue 03:52:22 PM 41.6294 -76.0383 234° Southwest 141 162 6,000 50 Climbing New Center
Tue 03:53:22 PM 41.6047 -76.0836 234° Southwest 141 162 6,000 -50 Level New Center
Tue 03:54:22 PM 41.5861 -76.1264 240° Southwest 141 162 5,900  Descending New Center
Tue 03:55:22 PM 41.5656 -76.1664 236° Southwest 141 162 6,000 50 Climbing New Center
Tue 03:56:22 PM 41.5472 -76.2008 235° Southwest 136 157 6,000  Level New Center
Tue 03:57:22 PM 41.5264 -76.2436 237° Southwest 136 157 6,000  Level New Center
Tue 03:58:22 PM 41.5036 -76.2889 236° Southwest 136 157 6,000  Level New Center
Tue 03:59:22 PM 41.4811 -76.3258 231° Southwest 136 157 6,000 -50 Level New Center
Tue 04:00:22 PM 41.4603 -76.3683 237° Southwest 136 157 5,900 -50 Descending New Center
Tue 04:01:22 PM 41.4419 -76.4056 237° Southwest 136 157 5,900 50 Level New Center
Tue 04:02:22 PM 41.4231 -76.4508 241° Southwest 136 157 6,000 50 Climbing New Center
Tue 04:03:22 PM 41.4064 -76.4939 243° Southwest 136 157 6,000  Level New Center
Tue 04:04:22 PM 41.3881 -76.5308 237° Southwest 131 151 6,000  Level New Center
Tue 04:05:22 PM 41.3697 -76.5653 235° Southwest 131 151 6,000  Level New Center
Tue 04:06:22 PM 41.3492 -76.6022 233° Southwest 126 145 6,000  Level New Center
Tue 04:07:22 PM 41.3242 -76.6417 230° Southwest 121 139 6,000  Level New Center
Tue 04:08:22 PM 41.3061 -76.6703 230° Southwest 126 145 6,000  Level New Center
Tue 04:09:22 PM 41.2850 -76.7156 238° Southwest 126 145 6,000  Level New Center
Tue 04:10:22 PM 41.2667 -76.7525 237° Southwest 126 145 6,000  Level New Center
Tue 04:11:22 PM 41.2481 -76.7894 236° Southwest 126 145 6,000  Level New Center
Tue 04:12:21 PM 41.2272 -76.8292 235° Southwest 126 145 6,000 -40 Level New Center
Tue 04:13:53 PM 41.1950 -76.8894 235° Southwest 125 144 5,900 -39 Descending Cleveland Center
Tue 04:14:56 PM 41.1753 -76.9269 235° Southwest 125 144 5,900  Level Cleveland Center
Tue 04:15:58 PM 41.1567 -76.9661 238° Southwest 126 145 5,900  Level Cleveland Center
Tue 04:17:00 PM 41.1386 -77.0042 238° Southwest 124 143 5,900  Level Cleveland Center
Tue 04:18:02 PM 41.1200 -77.0428 237° Southwest 125 144 5,900  Level Cleveland Center
Tue 04:19:04 PM 41.0953 -77.0886 234° Southwest 126 145 5,900 48 Level Cleveland Center
Tue 04:20:06 PM 41.0742 -77.1278 234° Southwest 128 147 6,000 48 Climbing Cleveland Center
Tue 04:21:08 PM 41.0531 -77.1678 235° Southwest 130 150 6,000  Level Cleveland Center
Tue 04:22:10 PM 41.0322 -77.2075 235° Southwest 132 152 6,000  Level Cleveland Center
Tue 04:23:12 PM 41.0125 -77.2464 236° Southwest 130 150 6,000  Level Cleveland Center
Tue 04:24:14 PM 40.9875 -77.2928 234° Southwest 129 148 6,000  Level Cleveland Center
Tue 04:25:16 PM 40.9589 -77.3244 220° Southwest 130 150 6,000  Level Cleveland Center
Tue 04:26:18 PM 40.9319 -77.3592 224° Southwest 132 152 6,000  Level Cleveland Center
Tue 04:27:22 PM 40.9086 -77.4078 238° Southwest 142 163 6,000  Level New Center
Tue 04:28:22 PM 40.8917 -77.4500 242° Southwest 142 163 6,000  Level New Center
Tue 04:29:22 PM 40.8725 -77.4947 240° Southwest 142 163 6,000  Level New Center
Tue 04:30:22 PM 40.8514 -77.5367 236° Southwest 142 163 6,000  Level New Center
Tue 04:31:22 PM 40.8283 -77.5756 232° Southwest 137 158 6,000  Level New Center
Tue 04:32:22 PM 40.8050 -77.6169 233° Southwest 137 158 6,000  Level New Center
Tue 04:33:22 PM 40.7819 -77.6586 234° Southwest 137 158 6,000  Level New Center
Tue 04:34:22 PM 40.7608 -77.6975 234° Southwest 142 163 6,000  Level New Center
Tue 04:35:22 PM 40.7397 -77.7364 234° Southwest 142 163 6,000  Level New Center
Tue 04:37:41 PM 40.6864 -77.8328 234° Southwest 139 160 6,000  Level Cleveland Center
Tue 04:38:43 PM 40.6642 -77.8708 232° Southwest 136 157 6,000  Level Cleveland Center
Tue 04:39:46 PM 40.6414 -77.9094 232° Southwest 134 154 6,000  Level Cleveland Center
Tue 04:40:48 PM 40.6153 -77.9600 236° Southwest 137 158 6,000  Level Cleveland Center
Tue 04:41:50 PM 40.5931 -78.0008 234° Southwest 138 159 6,000 -53 Level Cleveland Center
Tue 04:42:42 PM 40.5742 -78.0369 235° Southwest 137 158 5,900  Descending Cleveland Center
Tue 04:42:52 PM 40.5739 -78.0414 265° West 135 155 6,000  Climbing Cleveland Center
Tue 04:43:42 PM 40.5503 -78.0806 232° Southwest 136 157 5,900  Descending Cleveland Center
Tue 04:43:54 PM 40.5519 -78.0808 353° North 134 154 6,000 122 Climbing Cleveland Center
Tue 04:44:31 PM 40.5333 -78.1086 229° Southwest 130 150 6,000 97 Level Cleveland Center
Tue 04:44:56 PM 40.5306 -78.1181 249° West 132 152 6,100 -100 Climbing Cleveland Center
Tue 04:45:31 PM 40.5114 -78.1497 231° Southwest 130 150 5,900  Descending Cleveland Center
Tue 04:45:58 PM 40.5056 -78.1664 245° Southwest 132 152 6,100  Climbing Cleveland Center
Tue 04:46:32 PM 40.4919 -78.1883 231° Southwest 131 151 5,900  Descending Cleveland Center
Tue 04:47:00 PM 40.4844 -78.2031 236° Southwest 130 150 6,100 98 Climbing Cleveland Center
Tue 04:47:33 PM 40.4703 -78.2267 232° Southwest 131 151 6,000 -97 Descending Cleveland Center
Tue 04:48:02 PM 40.4639 -78.2419 241° Southwest 129 148 6,000  Level Cleveland Center
Tue 04:48:33 PM 40.4483 -78.2650 228° Southwest 131 151 6,000  Level Cleveland Center
Tue 04:49:04 PM 40.4422 -78.2811 244° Southwest 130 150 6,000 -98 Level Cleveland Center
Tue 04:49:34 PM 40.4264 -78.3089 233° Southwest 136 157 5,900  Descending Cleveland Center
Tue 04:50:07 PM 40.4197 -78.3208 234° Southwest 133 153 6,000  Climbing Cleveland Center
Tue 04:50:35 PM 40.4044 -78.3472 233° Southwest 135 155 5,900  Descending Cleveland Center
Tue 04:51:09 PM 40.3942 -78.3683 237° Southwest 134 154 6,000 100 Climbing Cleveland Center
Tue 04:51:35 PM 40.3828 -78.3853 229° Southwest 134 154 6,000  Level Cleveland Center
Tue 04:52:11 PM 40.3722 -78.4078 238° Southwest 134 154 6,000  Level Cleveland Center
Tue 04:52:36 PM 40.3608 -78.4264 231° Southwest 135 155 6,000  Level Cleveland Center
Tue 04:53:13 PM 40.3508 -78.4522 243° Southwest 138 159 6,000 -100 Level Cleveland Center
Tue 04:53:36 PM 40.3386 -78.4700 228° Southwest 137 158 5,900  Descending Cleveland Center
Tue 04:54:15 PM 40.3283 -78.4900 236° Southwest 130 150 6,000 98 Climbing Cleveland Center
Tue 04:54:37 PM 40.3186 -78.5111 239° Southwest 135 155 6,000  Level Cleveland Center
Tue 04:55:17 PM 40.3067 -78.5303 231° Southwest 131 151 6,000 -98 Level Cleveland Center
Tue 04:55:38 PM 40.2967 -78.5492 235° Southwest 133 153 5,900  Descending Cleveland Center
Tue 04:56:19 PM 40.2814 -78.5789 236° Southwest 131 151 6,000  Climbing Cleveland Center
Tue 04:56:32 PM 40.2750 -78.5847 215° Southwest 138 159 5,900  Descending Cleveland Center
Tue 04:57:21 PM 40.2600 -78.6203 241° Southwest 135 155 6,000  Climbing Cleveland Center
Tue 04:57:33 PM 40.2550 -78.6286 232° Southwest 139 160 5,900  Descending Cleveland Center
Tue 04:58:23 PM 40.2386 -78.6625 238° Southwest 137 158 6,000 100 Climbing Cleveland Center
Tue 04:58:33 PM 40.2331 -78.6667 210° Southwest 136 157 6,000 95 Level Cleveland Center
Tue 04:59:26 PM 40.2175 -78.7017 240° Southwest 134 154 6,100 -98 Climbing Cleveland Center
Tue 04:59:34 PM 40.2108 -78.7100 224° Southwest 135 155 5,900 -261 Descending Cleveland Center
Tue 05:00:35 PM 40.1867 -78.7478 230° Southwest 134 154 5,800 -155 Descending Cleveland Center
Tue 05:01:30 PM 40.1681 -78.7856 237° Southwest 132 152 5,600 -300 Descending Cleveland Center
Tue 05:01:35 PM 40.1647 -78.7858 184° South 127 146 5,500 -545 Descending Cleveland Center
Tue 05:02:36 PM 40.1475 -78.8189 236° Southwest 111 128 5,000 -353 Descending Cleveland Center
Tue 05:03:34 PM 40.1347 -78.8475 240° Southwest 113 130 4,800 -207 Descending Cleveland Center
Tue 05:05:00 PM 40.0997 -78.9003 229° Southwest  Level FlightAware
Tue 05:12:00 PM 40.0333 -79.0000 232° Southwest  Level FlightAware
Tue 05:13:00 PM 40.0389 -79.0150 232° Southwest  Level Estimated

Login

Don't have an account? Register now (free) for customized features, flight alerts, and more!